sensor_id;sensor_type;location;lat;lon;timestamp;pressure;altitude;pressure_sealevel;temperature;humidity
46347;BME280;32057;47.830;19.046;2023-01-25T00:00:36;101829.91;;;-1.21;100.00
46347;BME280;32057;47.830;19.046;2023-01-25T00:03:02;101825.41;;;-1.05;100.00
46347;BME280;32057;47.830;19.046;2023-01-25T00:05:27;101830.59;;;-0.94;100.00
46347;BME280;32057;47.830;19.046;2023-01-25T00:07:52;101834.47;;;-0.89;100.00
46347;BME280;32057;47.830;19.046;2023-01-25T00:10:18;101831.16;;;-0.88;100.00
46347;BME280;32057;47.830;19.046;2023-01-25T00:12:43;101832.56;;;-0.92;100.00
46347;BME280;32057;47.830;19.046;2023-01-25T00:15:08;101839.09;;;-0.85;100.00
46347;BME280;32057;47.830;19.046;2023-01-25T00:17:34;101838.13;;;-0.77;100.00
46347;BME280;32057;47.830;19.046;2023-01-25T00:19:59;101837.50;;;-0.74;100.00
46347;BME280;32057;47.830;19.046;2023-01-25T00:22:24;101844.28;;;-0.75;100.00
46347;BME280;32057;47.830;19.046;2023-01-25T00:24:50;101840.41;;;-0.99;100.00
46347;BME280;32057;47.830;19.046;2023-01-25T00:27:15;101845.66;;;-0.97;100.00
46347;BME280;32057;47.830;19.046;2023-01-25T00:29:40;101840.75;;;-1.05;100.00
46347;BME280;32057;47.830;19.046;2023-01-25T00:34:37;101844.44;;;-1.20;100.00
46347;BME280;32057;47.830;19.046;2023-01-25T00:39:44;101851.44;;;-1.09;100.00
46347;BME280;32057;47.830;19.046;2023-01-25T00:42:10;101859.50;;;-1.23;100.00
46347;BME280;32057;47.830;19.046;2023-01-25T00:44:36;101861.19;;;-1.32;100.00
46347;BME280;32057;47.830;19.046;2023-01-25T00:47:01;101856.06;;;-1.24;100.00
46347;BME280;32057;47.830;19.046;2023-01-25T00:49:27;101867.03;;;-1.25;100.00
46347;BME280;32057;47.830;19.046;2023-01-25T00:51:52;101868.84;;;-1.24;100.00
46347;BME280;32057;47.830;19.046;2023-01-25T00:54:18;101864.13;;;-1.19;100.00
46347;BME280;32057;47.830;19.046;2023-01-25T00:56:44;101865.31;;;-1.15;100.00
46347;BME280;32057;47.830;19.046;2023-01-25T00:59:10;101868.22;;;-1.21;100.00
46347;BME280;32057;47.830;19.046;2023-01-25T01:01:35;101871.75;;;-1.38;100.00
46347;BME280;32057;47.830;19.046;2023-01-25T01:04:01;101876.34;;;-1.53;100.00
46347;BME280;32057;47.830;19.046;2023-01-25T01:06:26;101861.72;;;-1.45;100.00
46347;BME280;32057;47.830;19.046;2023-01-25T01:08:51;101869.06;;;-1.39;100.00
46347;BME280;32057;47.830;19.046;2023-01-25T01:11:16;101868.84;;;-1.32;100.00
46347;BME280;32057;47.830;19.046;2023-01-25T01:13:42;101872.91;;;-1.26;100.00
46347;BME280;32057;47.830;19.046;2023-01-25T01:16:08;101869.47;;;-1.35;100.00
46347;BME280;32057;47.830;19.046;2023-01-25T01:18:41;101864.47;;;-1.52;100.00
46347;BME280;32057;47.830;19.046;2023-01-25T01:21:07;101856.66;;;-1.54;100.00
46347;BME280;32057;47.830;19.046;2023-01-25T01:23:33;101855.75;;;-1.46;100.00
46347;BME280;32057;47.830;19.046;2023-01-25T01:25:59;101862.16;;;-1.41;100.00
46347;BME280;32057;47.830;19.046;2023-01-25T01:28:24;101853.38;;;-1.34;100.00
46347;BME280;32057;47.830;19.046;2023-01-25T01:30:52;101856.16;;;-1.41;100.00
46347;BME280;32057;47.830;19.046;2023-01-25T01:33:17;101854.41;;;-1.51;100.00
46347;BME280;32057;47.830;19.046;2023-01-25T01:35:42;101855.19;;;-1.61;100.00
46347;BME280;32057;47.830;19.046;2023-01-25T01:38:10;101855.97;;;-1.62;100.00
46347;BME280;32057;47.830;19.046;2023-01-25T01:40:36;101855.19;;;-1.61;100.00
46347;BME280;32057;47.830;19.046;2023-01-25T01:43:05;101857.41;;;-1.55;100.00
46347;BME280;32057;47.830;19.046;2023-01-25T01:48:15;101850.47;;;-1.47;100.00
46347;BME280;32057;47.830;19.046;2023-01-25T01:50:42;101854.97;;;-1.45;100.00
46347;BME280;32057;47.830;19.046;2023-01-25T01:53:07;101853.44;;;-1.43;100.00
46347;BME280;32057;47.830;19.046;2023-01-25T01:55:32;101853.13;;;-1.37;100.00
46347;BME280;32057;47.830;19.046;2023-01-25T01:57:58;101848.16;;;-1.35;100.00
46347;BME280;32057;47.830;19.046;2023-01-25T02:00:24;101852.03;;;-1.30;100.00
46347;BME280;32057;47.830;19.046;2023-01-25T02:02:51;101850.81;;;-1.25;100.00
46347;BME280;32057;47.830;19.046;2023-01-25T02:05:26;101851.53;;;-1.26;100.00
46347;BME280;32057;47.830;19.046;2023-01-25T02:07:56;101844.66;;;-1.27;100.00
46347;BME280;32057;47.830;19.046;2023-01-25T02:10:23;101854.81;;;-1.18;100.00
46347;BME280;32057;47.830;19.046;2023-01-25T02:12:50;101852.81;;;-1.12;100.00
46347;BME280;32057;47.830;19.046;2023-01-25T02:15:16;101851.94;;;-1.13;100.00
46347;BME280;32057;47.830;19.046;2023-01-25T02:17:41;101850.03;;;-1.24;100.00
46347;BME280;32057;47.830;19.046;2023-01-25T02:20:18;101859.31;;;-1.44;100.00
46347;BME280;32057;47.830;19.046;2023-01-25T02:25:25;101861.16;;;-1.51;100.00
46347;BME280;32057;47.830;19.046;2023-01-25T02:30:35;101853.91;;;-1.47;100.00
46347;BME280;32057;47.830;19.046;2023-01-25T02:33:00;101853.81;;;-1.57;100.00
46347;BME280;32057;47.830;19.046;2023-01-25T02:35:45;101850.59;;;-1.73;100.00
46347;BME280;32057;47.830;19.046;2023-01-25T02:38:12;101859.56;;;-1.68;100.00
46347;BME280;32057;47.830;19.046;2023-01-25T02:40:58;101853.25;;;-1.63;100.00
46347;BME280;32057;47.830;19.046;2023-01-25T02:43:26;101846.63;;;-1.61;100.00
46347;BME280;32057;47.830;19.046;2023-01-25T02:45:54;101849.34;;;-1.59;100.00
46347;BME280;32057;47.830;19.046;2023-01-25T02:48:22;101842.03;;;-1.74;100.00
46347;BME280;32057;47.830;19.046;2023-01-25T02:50:47;101849.88;;;-1.90;100.00
46347;BME280;32057;47.830;19.046;2023-01-25T02:53:12;101850.50;;;-1.92;100.00
46347;BME280;32057;47.830;19.046;2023-01-25T02:55:38;101841.66;;;-1.96;100.00
46347;BME280;32057;47.830;19.046;2023-01-25T02:58:03;101842.69;;;-1.85;100.00
46347;BME280;32057;47.830;19.046;2023-01-25T03:00:28;101836.81;;;-1.75;100.00
46347;BME280;32057;47.830;19.046;2023-01-25T03:02:53;101838.13;;;-1.70;100.00
46347;BME280;32057;47.830;19.046;2023-01-25T03:05:19;101842.00;;;-1.65;100.00
46347;BME280;32057;47.830;19.046;2023-01-25T03:07:44;101833.88;;;-1.61;100.00
46347;BME280;32057;47.830;19.046;2023-01-25T03:10:09;101837.38;;;-1.69;100.00
46347;BME280;32057;47.830;19.046;2023-01-25T03:12:35;101840.78;;;-1.96;100.00
46347;BME280;32057;47.830;19.046;2023-01-25T03:15:00;101839.66;;;-2.17;100.00
46347;BME280;32057;47.830;19.046;2023-01-25T03:17:25;101843.53;;;-2.21;100.00
46347;BME280;32057;47.830;19.046;2023-01-25T03:19:51;101842.66;;;-2.22;100.00
46347;BME280;32057;47.830;19.046;2023-01-25T03:22:18;101838.84;;;-2.08;100.00
46347;BME280;32057;47.830;19.046;2023-01-25T03:24:43;101837.94;;;-1.99;100.00
46347;BME280;32057;47.830;19.046;2023-01-25T03:27:08;101840.16;;;-1.94;100.00
46347;BME280;32057;47.830;19.046;2023-01-25T03:29:42;101838.63;;;-1.92;100.00
46347;BME280;32057;47.830;19.046;2023-01-25T03:32:07;101831.59;;;-1.86;100.00
46347;BME280;32057;47.830;19.046;2023-01-25T03:34:33;101836.97;;;-1.83;100.00
46347;BME280;32057;47.830;19.046;2023-01-25T03:36:58;101836.44;;;-2.06;100.00
46347;BME280;32057;47.830;19.046;2023-01-25T03:39:23;101837.09;;;-2.17;100.00
46347;BME280;32057;47.830;19.046;2023-01-25T03:41:48;101831.38;;;-2.15;100.00
46347;BME280;32057;47.830;19.046;2023-01-25T03:44:14;101834.09;;;-2.13;100.00
46347;BME280;32057;47.830;19.046;2023-01-25T03:46:39;101830.31;;;-2.08;100.00
46347;BME280;32057;47.830;19.046;2023-01-25T03:49:05;101827.94;;;-2.15;100.00
46347;BME280;32057;47.830;19.046;2023-01-25T03:51:31;101830.31;;;-2.08;100.00
46347;BME280;32057;47.830;19.046;2023-01-25T03:53:57;101830.88;;;-2.02;100.00
46347;BME280;32057;47.830;19.046;2023-01-25T03:56:22;101828.31;;;-2.02;100.00
46347;BME280;32057;47.830;19.046;2023-01-25T03:58:47;101825.50;;;-2.05;100.00
46347;BME280;32057;47.830;19.046;2023-01-25T04:01:13;101827.59;;;-2.01;100.00
46347;BME280;32057;47.830;19.046;2023-01-25T04:03:38;101826.81;;;-2.00;100.00
46347;BME280;32057;47.830;19.046;2023-01-25T04:06:04;101824.28;;;-2.00;100.00
46347;BME280;32057;47.830;19.046;2023-01-25T04:08:29;101823.81;;;-1.96;100.00
46347;BME280;32057;47.830;19.046;2023-01-25T04:11:02;101823.22;;;-1.93;100.00
46347;BME280;32057;47.830;19.046;2023-01-25T04:13:28;101824.38;;;-1.90;100.00
46347;BME280;32057;47.830;19.046;2023-01-25T04:15:53;101822.13;;;-1.87;100.00
46347;BME280;32057;47.830;19.046;2023-01-25T04:18:18;101820.31;;;-1.88;100.00
46347;BME280;32057;47.830;19.046;2023-01-25T04:20:44;101824.56;;;-1.97;100.00
46347;BME280;32057;47.830;19.046;2023-01-25T04:23:10;101823.22;;;-2.02;100.00
46347;BME280;32057;47.830;19.046;2023-01-25T04:25:35;101826.09;;;-1.99;100.00
46347;BME280;32057;47.830;19.046;2023-01-25T04:28:01;101820.69;;;-2.02;100.00
46347;BME280;32057;47.830;19.046;2023-01-25T04:30:26;101818.31;;;-2.09;100.00
46347;BME280;32057;47.830;19.046;2023-01-25T04:32:51;101818.91;;;-2.03;100.00
46347;BME280;32057;47.830;19.046;2023-01-25T04:35:17;101825.63;;;-1.95;100.00
46347;BME280;32057;47.830;19.046;2023-01-25T04:37:51;101811.81;;;-1.97;100.00
46347;BME280;32057;47.830;19.046;2023-01-25T04:40:16;101820.22;;;-1.98;100.00
46347;BME280;32057;47.830;19.046;2023-01-25T04:42:42;101815.56;;;-2.02;100.00
46347;BME280;32057;47.830;19.046;2023-01-25T04:45:07;101816.03;;;-2.06;100.00
46347;BME280;32057;47.830;19.046;2023-01-25T04:47:32;101807.53;;;-2.15;100.00
46347;BME280;32057;47.830;19.046;2023-01-25T04:49:58;101814.31;;;-2.25;100.00
46347;BME280;32057;47.830;19.046;2023-01-25T04:52:23;101814.88;;;-2.18;100.00
46347;BME280;32057;47.830;19.046;2023-01-25T04:54:48;101813.81;;;-2.12;100.00
46347;BME280;32057;47.830;19.046;2023-01-25T04:57:14;101812.44;;;-2.08;100.00
46347;BME280;32057;47.830;19.046;2023-01-25T04:59:39;101812.75;;;-2.05;100.00
46347;BME280;32057;47.830;19.046;2023-01-25T05:02:04;101811.25;;;-2.03;100.00
46347;BME280;32057;47.830;19.046;2023-01-25T05:04:29;101811.41;;;-2.10;100.00
46347;BME280;32057;47.830;19.046;2023-01-25T05:06:55;101813.53;;;-2.15;100.00
46347;BME280;32057;47.830;19.046;2023-01-25T05:09:20;101818.03;;;-2.21;100.00
46347;BME280;32057;47.830;19.046;2023-01-25T05:11:45;101812.78;;;-2.23;100.00
46347;BME280;32057;47.830;19.046;2023-01-25T05:14:11;101822.38;;;-2.20;100.00
46347;BME280;32057;47.830;19.046;2023-01-25T05:16:36;101817.91;;;-2.23;100.00
46347;BME280;32057;47.830;19.046;2023-01-25T05:19:01;101818.66;;;-2.24;100.00
46347;BME280;32057;47.830;19.046;2023-01-25T05:21:26;101817.47;;;-2.27;100.00
46347;BME280;32057;47.830;19.046;2023-01-25T05:24:10;101817.31;;;-2.29;100.00
46347;BME280;32057;47.830;19.046;2023-01-25T05:26:36;101821.22;;;-2.32;100.00
46347;BME280;32057;47.830;19.046;2023-01-25T05:29:19;101820.03;;;-2.45;100.00
46347;BME280;32057;47.830;19.046;2023-01-25T05:31:45;101813.63;;;-2.58;100.00
46347;BME280;32057;47.830;19.046;2023-01-25T05:34:10;101821.72;;;-2.63;100.00
46347;BME280;32057;47.830;19.046;2023-01-25T05:36:35;101818.56;;;-2.60;100.00
46347;BME280;32057;47.830;19.046;2023-01-25T05:39:01;101826.81;;;-2.63;100.00
46347;BME280;32057;47.830;19.046;2023-01-25T05:41:26;101825.59;;;-2.66;100.00
46347;BME280;32057;47.830;19.046;2023-01-25T05:43:51;101824.72;;;-2.67;100.00
46347;BME280;32057;47.830;19.046;2023-01-25T05:46:16;101820.66;;;-2.56;100.00
46347;BME280;32057;47.830;19.046;2023-01-25T05:48:42;101819.88;;;-2.46;100.00
46347;BME280;32057;47.830;19.046;2023-01-25T05:51:07;101818.69;;;-2.41;100.00
46347;BME280;32057;47.830;19.046;2023-01-25T05:53:32;101821.66;;;-2.36;100.00
46347;BME280;32057;47.830;19.046;2023-01-25T05:56:04;101821.06;;;-2.34;100.00
46347;BME280;32057;47.830;19.046;2023-01-25T05:58:30;101827.19;;;-2.32;100.00
46347;BME280;32057;47.830;19.046;2023-01-25T06:00:55;101830.06;;;-2.29;100.00
46347;BME280;32057;47.830;19.046;2023-01-25T06:03:23;101827.66;;;-2.36;100.00
46347;BME280;32057;47.830;19.046;2023-01-25T06:05:53;101830.72;;;-2.57;100.00
46347;BME280;32057;47.830;19.046;2023-01-25T06:08:18;101836.41;;;-2.77;100.00
46347;BME280;32057;47.830;19.046;2023-01-25T06:10:44;101835.38;;;-2.79;100.00
46347;BME280;32057;47.830;19.046;2023-01-25T06:13:10;101830.25;;;-2.71;100.00
46347;BME280;32057;47.830;19.046;2023-01-25T06:15:35;101833.09;;;-2.68;100.00
46347;BME280;32057;47.830;19.046;2023-01-25T06:18:00;101833.41;;;-2.65;100.00
46347;BME280;32057;47.830;19.046;2023-01-25T06:20:25;101831.91;;;-2.63;100.00
46347;BME280;32057;47.830;19.046;2023-01-25T06:22:51;101841.06;;;-2.65;100.00
46347;BME280;32057;47.830;19.046;2023-01-25T06:25:16;101843.00;;;-2.71;100.00
46347;BME280;32057;47.830;19.046;2023-01-25T06:27:42;101851.38;;;-2.72;100.00
46347;BME280;32057;47.830;19.046;2023-01-25T06:30:08;101853.19;;;-2.88;100.00
46347;BME280;32057;47.830;19.046;2023-01-25T06:32:33;101855.56;;;-3.07;100.00
46347;BME280;32057;47.830;19.046;2023-01-25T06:34:58;101859.91;;;-3.15;100.00
46347;BME280;32057;47.830;19.046;2023-01-25T06:37:24;101866.94;;;-3.12;100.00
46347;BME280;32057;47.830;19.046;2023-01-25T06:39:49;101865.16;;;-3.05;100.00
46347;BME280;32057;47.830;19.046;2023-01-25T06:42:14;101861.28;;;-2.92;100.00
46347;BME280;32057;47.830;19.046;2023-01-25T06:44:39;101867.84;;;-2.94;100.00
46347;BME280;32057;47.830;19.046;2023-01-25T06:47:07;101867.25;;;-3.01;100.00
46347;BME280;32057;47.830;19.046;2023-01-25T06:49:32;101863.06;;;-3.00;100.00
46347;BME280;32057;47.830;19.046;2023-01-25T06:51:57;101864.88;;;-2.99;100.00
46347;BME280;32057;47.830;19.046;2023-01-25T06:54:25;101869.69;;;-2.93;100.00
46347;BME280;32057;47.830;19.046;2023-01-25T06:56:50;101864.28;;;-2.79;100.00
46347;BME280;32057;47.830;19.046;2023-01-25T06:59:15;101859.63;;;-2.66;100.00
46347;BME280;32057;47.830;19.046;2023-01-25T07:01:40;101857.38;;;-2.54;100.00
46347;BME280;32057;47.830;19.046;2023-01-25T07:04:06;101855.88;;;-2.43;100.00
46347;BME280;32057;47.830;19.046;2023-01-25T07:06:33;101858.13;;;-2.37;100.00
46347;BME280;32057;47.830;19.046;2023-01-25T07:09:06;101858.25;;;-2.36;100.00
46347;BME280;32057;47.830;19.046;2023-01-25T07:11:31;101862.03;;;-2.41;100.00
46347;BME280;32057;47.830;19.046;2023-01-25T07:13:57;101867.28;;;-2.39;100.00
46347;BME280;32057;47.830;19.046;2023-01-25T07:16:22;101866.06;;;-2.34;100.00
46347;BME280;32057;47.830;19.046;2023-01-25T07:18:47;101866.22;;;-2.33;100.00
46347;BME280;32057;47.830;19.046;2023-01-25T07:23:38;101865.75;;;-2.29;100.00
46347;BME280;32057;47.830;19.046;2023-01-25T07:26:04;101864.69;;;-2.13;100.00
46347;BME280;32057;47.830;19.046;2023-01-25T07:28:30;101861.94;;;-2.06;100.00
46347;BME280;32057;47.830;19.046;2023-01-25T07:30:55;101863.56;;;-1.98;100.00
46347;BME280;32057;47.830;19.046;2023-01-25T07:33:21;101862.38;;;-1.93;100.00
46347;BME280;32057;47.830;19.046;2023-01-25T07:35:46;101860.88;;;-1.91;100.00
46347;BME280;32057;47.830;19.046;2023-01-25T07:38:12;101849.88;;;-1.90;100.00
46347;BME280;32057;47.830;19.046;2023-01-25T07:40:37;101857.84;;;-1.87;100.00
46347;BME280;32057;47.830;19.046;2023-01-25T07:43:02;101859.94;;;-1.83;100.00
46347;BME280;32057;47.830;19.046;2023-01-25T07:45:27;101856.91;;;-1.78;100.00
46347;BME280;32057;47.830;19.046;2023-01-25T07:47:59;101854.63;;;-1.67;100.00
46347;BME280;32057;47.830;19.046;2023-01-25T07:50:25;101845.28;;;-1.57;100.00
46347;BME280;32057;47.830;19.046;2023-01-25T07:52:50;101853.19;;;-1.46;100.00
46347;BME280;32057;47.830;19.046;2023-01-25T07:55:15;101845.13;;;-1.31;100.00
46347;BME280;32057;47.830;19.046;2023-01-25T07:57:41;101843.16;;;-1.25;100.00
46347;BME280;32057;47.830;19.046;2023-01-25T08:00:06;101835.63;;;-1.24;100.00
46347;BME280;32057;47.830;19.046;2023-01-25T08:02:34;101840.66;;;-1.15;100.00
46347;BME280;32057;47.830;19.046;2023-01-25T08:04:59;101842.44;;;-1.14;100.00
46347;BME280;32057;47.830;19.046;2023-01-25T08:07:26;101837.94;;;-1.08;100.00
46347;BME280;32057;47.830;19.046;2023-01-25T08:09:52;101830.53;;;-1.05;100.00
46347;BME280;32057;47.830;19.046;2023-01-25T08:12:17;101833.63;;;-0.98;100.00
46347;BME280;32057;47.830;19.046;2023-01-25T08:14:43;101837.03;;;-0.89;100.00
46347;BME280;32057;47.830;19.046;2023-01-25T08:17:08;101831.16;;;-0.88;100.00
46347;BME280;32057;47.830;19.046;2023-01-25T08:19:33;101839.75;;;-0.88;100.00
46347;BME280;32057;47.830;19.046;2023-01-25T08:21:58;101833.78;;;-0.97;100.00
46347;BME280;32057;47.830;19.046;2023-01-25T08:24:24;101839.38;;;-1.01;100.00
46347;BME280;32057;47.830;19.046;2023-01-25T08:26:49;101826.97;;;-0.88;100.00
46347;BME280;32057;47.830;19.046;2023-01-25T08:29:14;101834.06;;;-0.75;100.00
46347;BME280;32057;47.830;19.046;2023-01-25T08:31:40;101831.00;;;-0.71;100.00
46347;BME280;32057;47.830;19.046;2023-01-25T08:34:08;101834.06;;;-0.75;100.00
46347;BME280;32057;47.830;19.046;2023-01-25T08:36:33;101822.22;;;-0.64;100.00
46347;BME280;32057;47.830;19.046;2023-01-25T08:39:00;101831.91;;;-0.51;100.00
46347;BME280;32057;47.830;19.046;2023-01-25T08:41:27;101824.78;;;-0.45;100.00
46347;BME280;32057;47.830;19.046;2023-01-25T08:43:53;101822.34;;;-0.44;100.00
46347;BME280;32057;47.830;19.046;2023-01-25T08:46:18;101822.13;;;-0.36;100.00
46347;BME280;32057;47.830;19.046;2023-01-25T08:48:44;101823.44;;;-0.31;100.00
46347;BME280;32057;47.830;19.046;2023-01-25T08:51:10;101822.53;;;-0.32;100.00
46347;BME280;32057;47.830;19.046;2023-01-25T08:53:36;101825.50;;;-0.27;100.00
46347;BME280;32057;47.830;19.046;2023-01-25T08:56:02;101822.16;;;-0.26;100.00
46347;BME280;32057;47.830;19.046;2023-01-25T08:58:28;101822.78;;;-0.29;100.00
46347;BME280;32057;47.830;19.046;2023-01-25T09:00:53;101820.00;;;-0.32;100.00
46347;BME280;32057;47.830;19.046;2023-01-25T09:03:24;101819.09;;;-0.22;100.00
46347;BME280;32057;47.830;19.046;2023-01-25T09:05:49;101811.56;;;-0.21;100.00
46347;BME280;32057;47.830;19.046;2023-01-25T09:08:15;101812.88;;;-0.15;100.00
46347;BME280;32057;47.830;19.046;2023-01-25T09:10:40;101820.81;;;-0.12;100.00
46347;BME280;32057;47.830;19.046;2023-01-25T09:13:05;101812.91;;;-0.05;100.00
46347;BME280;32057;47.830;19.046;2023-01-25T09:15:30;101818.03;;;-0.05;100.00
46347;BME280;32057;47.830;19.046;2023-01-25T09:17:56;101814.97;;;-0.01;100.00
46347;BME280;32057;47.830;19.046;2023-01-25T09:20:21;101816.13;;;0.03;100.00
46347;BME280;32057;47.830;19.046;2023-01-25T09:22:47;101814.47;;;0.03;100.00
46347;BME280;32057;47.830;19.046;2023-01-25T09:25:12;101819.09;;;0.07;100.00
46347;BME280;32057;47.830;19.046;2023-01-25T09:27:38;101815.28;;;0.12;100.00
46347;BME280;32057;47.830;19.046;2023-01-25T09:30:03;101813.84;;;0.16;100.00
46347;BME280;32057;47.830;19.046;2023-01-25T09:32:29;101816.53;;;0.17;100.00
46347;BME280;32057;47.830;19.046;2023-01-25T09:34:54;101809.38;;;0.24;100.00
46347;BME280;32057;47.830;19.046;2023-01-25T09:37:19;101808.13;;;0.29;100.00
46347;BME280;32057;47.830;19.046;2023-01-25T09:39:44;101805.81;;;0.32;100.00
46347;BME280;32057;47.830;19.046;2023-01-25T09:47:33;101802.78;;;0.46;100.00
46347;BME280;32057;47.830;19.046;2023-01-25T09:55:18;101790.38;;;0.51;100.00
46347;BME280;32057;47.830;19.046;2023-01-25T09:57:45;101796.50;;;0.53;100.00
46347;BME280;32057;47.830;19.046;2023-01-25T10:03:14;101781.50;;;0.68;100.00
46347;BME280;32057;47.830;19.046;2023-01-25T10:05:48;101775.38;;;0.76;100.00
46347;BME280;32057;47.830;19.046;2023-01-25T10:10:43;101769.22;;;0.84;100.00
46347;BME280;32057;47.830;19.046;2023-01-25T10:13:10;101758.97;;;0.84;100.00
46347;BME280;32057;47.830;19.046;2023-01-25T10:15:38;101761.25;;;0.91;100.00
46347;BME280;32057;47.830;19.046;2023-01-25T10:20:48;101752.41;;;0.98;100.00
46347;BME280;32057;47.830;19.046;2023-01-25T10:25:55;101752.91;;;1.04;100.00
46347;BME280;32057;47.830;19.046;2023-01-25T10:33:17;101744.91;;;1.32;100.00
46347;BME280;32057;47.830;19.046;2023-01-25T10:35:44;101738.44;;;1.37;100.00
46347;BME280;32057;47.830;19.046;2023-01-25T10:38:12;101742.66;;;1.47;100.00
46347;BME280;32057;47.830;19.046;2023-01-25T10:40:43;101728.94;;;1.46;100.00
46347;BME280;32057;47.830;19.046;2023-01-25T10:43:19;101734.69;;;1.54;100.00
46347;BME280;32057;47.830;19.046;2023-01-25T10:45:45;101730.97;;;1.50;100.00
46347;BME280;32057;47.830;19.046;2023-01-25T10:48:19;101718.50;;;1.55;100.00
46347;BME280;32057;47.830;19.046;2023-01-25T10:50:46;101716.75;;;1.66;100.00
46347;BME280;32057;47.830;19.046;2023-01-25T10:58:34;101702.69;;;1.83;100.00
46347;BME280;32057;47.830;19.046;2023-01-25T11:01:00;101703.22;;;1.78;100.00
46347;BME280;32057;47.830;19.046;2023-01-25T11:03:32;101702.16;;;1.87;100.00
46347;BME280;32057;47.830;19.046;2023-01-25T11:05:57;101701.47;;;1.89;100.00
46347;BME280;32057;47.830;19.046;2023-01-25T11:10:54;101683.34;;;1.98;100.00
46347;BME280;32057;47.830;19.046;2023-01-25T11:13:24;101679.31;;;2.02;100.00
46347;BME280;32057;47.830;19.046;2023-01-25T11:18:29;101677.13;;;2.06;100.00
46347;BME280;32057;47.830;19.046;2023-01-25T11:21:11;101667.97;;;2.10;100.00
46347;BME280;32057;47.830;19.046;2023-01-25T11:23:39;101661.63;;;2.16;100.00
46347;BME280;32057;47.830;19.046;2023-01-25T11:28:36;101653.94;;;2.28;100.00
46347;BME280;32057;47.830;19.046;2023-01-25T11:31:01;101648.38;;;2.34;100.00
46347;BME280;32057;47.830;19.046;2023-01-25T11:33:26;101645.16;;;2.36;100.00
46347;BME280;32057;47.830;19.046;2023-01-25T11:38:29;101635.56;;;2.46;100.00
46347;BME280;32057;47.830;19.046;2023-01-25T11:41:40;101632.88;;;2.44;100.00
46347;BME280;32057;47.830;19.046;2023-01-25T11:46:12;101617.00;;;2.38;100.00
46347;BME280;32057;47.830;19.046;2023-01-25T11:51:20;101599.81;;;2.49;100.00
46347;BME280;32057;47.830;19.046;2023-01-25T12:12:33;101577.69;;;2.63;100.00
46347;BME280;32057;47.830;19.046;2023-01-25T12:29:46;101544.56;;;2.91;100.00
46347;BME280;32057;47.830;19.046;2023-01-25T12:34:43;101540.97;;;3.01;100.00
46347;BME280;32057;47.830;19.046;2023-01-25T12:37:12;101535.81;;;3.01;100.00
46347;BME280;32057;47.830;19.046;2023-01-25T12:40:13;101534.00;;;2.99;100.00
46347;BME280;32057;47.830;19.046;2023-01-25T12:45:01;101536.03;;;3.04;100.00
46347;BME280;32057;47.830;19.046;2023-01-25T12:47:30;101528.63;;;3.08;100.00
46347;BME280;32057;47.830;19.046;2023-01-25T12:52:31;101524.38;;;3.09;100.00
46347;BME280;32057;47.830;19.046;2023-01-25T12:54:59;101524.63;;;3.12;100.00
46347;BME280;32057;47.830;19.046;2023-01-25T13:07:46;101505.66;;;3.23;100.00
46347;BME280;32057;47.830;19.046;2023-01-25T13:12:57;101496.94;;;3.21;100.00
46347;BME280;32057;47.830;19.046;2023-01-25T13:17:59;101485.06;;;3.23;100.00
46347;BME280;32057;47.830;19.046;2023-01-25T13:23:11;101487.88;;;3.26;100.00
46347;BME280;32057;47.830;19.046;2023-01-25T13:25:50;101486.28;;;3.28;100.00
46347;BME280;32057;47.830;19.046;2023-01-25T13:28:39;101489.06;;;3.31;100.00
46347;BME280;32057;47.830;19.046;2023-01-25T13:31:04;101486.28;;;3.28;100.00
46347;BME280;32057;47.830;19.046;2023-01-25T13:33:30;101481.16;;;3.28;100.00
46347;BME280;32057;47.830;19.046;2023-01-25T13:35:56;101486.59;;;3.33;100.00
46347;BME280;32057;47.830;19.046;2023-01-25T13:41:00;101481.34;;;3.31;100.00
46347;BME280;32057;47.830;19.046;2023-01-25T13:43:26;101479.09;;;3.36;100.00
46347;BME280;32057;47.830;19.046;2023-01-25T13:45:51;101472.25;;;3.36;100.00
46347;BME280;32057;47.830;19.046;2023-01-25T13:48:18;101471.47;;;3.37;100.00
46347;BME280;32057;47.830;19.046;2023-01-25T13:55:42;101470.69;;;3.38;100.00
46347;BME280;32057;47.830;19.046;2023-01-25T13:58:21;101473.25;;;3.38;100.00
46347;BME280;32057;47.830;19.046;2023-01-25T14:00:57;101480.22;;;3.39;100.00
46347;BME280;32057;47.830;19.046;2023-01-25T14:03:27;101474.84;;;3.36;100.00
46347;BME280;32057;47.830;19.046;2023-01-25T14:05:54;101472.16;;;3.35;100.00
46347;BME280;32057;47.830;19.046;2023-01-25T14:08:20;101471.03;;;3.31;100.00
46347;BME280;32057;47.830;19.046;2023-01-25T14:10:46;101467.06;;;3.23;100.00
46347;BME280;32057;47.830;19.046;2023-01-25T14:13:15;101464.72;;;3.26;100.00
46347;BME280;32057;47.830;19.046;2023-01-25T14:15:41;101467.47;;;3.29;100.00
46347;BME280;32057;47.830;19.046;2023-01-25T14:18:16;101469.16;;;3.29;100.00
46347;BME280;32057;47.830;19.046;2023-01-25T14:20:47;101465.03;;;3.31;100.00
46347;BME280;32057;47.830;19.046;2023-01-25T14:25:44;101459.75;;;3.29;100.00
46347;BME280;32057;47.830;19.046;2023-01-25T14:28:10;101463.34;;;3.31;100.00
46347;BME280;32057;47.830;19.046;2023-01-25T14:30:36;101459.00;;;3.30;100.00
46347;BME280;32057;47.830;19.046;2023-01-25T14:33:02;101456.41;;;3.30;100.00
46347;BME280;32057;47.830;19.046;2023-01-25T14:37:54;101455.53;;;3.30;100.00
46347;BME280;32057;47.830;19.046;2023-01-25T14:40:20;101456.41;;;3.30;100.00
46347;BME280;32057;47.830;19.046;2023-01-25T14:42:46;101457.88;;;3.27;100.00
46347;BME280;32057;47.830;19.046;2023-01-25T14:45:12;101451.63;;;3.23;100.00